createdAt,value
2023-01-29T00:00:40.735Z,1021.50
2023-01-29T00:01:40.761Z,1021.51
2023-01-29T00:02:40.759Z,1021.46
2023-01-29T00:03:40.715Z,1021.33
2023-01-29T00:04:40.721Z,1021.38
2023-01-29T00:05:40.708Z,1021.39
2023-01-29T00:06:40.698Z,1021.40
2023-01-29T00:07:40.675Z,1021.36
2023-01-29T00:08:40.656Z,1021.35
2023-01-29T00:09:40.686Z,1021.35
2023-01-29T00:10:40.636Z,1021.42
2023-01-29T00:11:40.636Z,1021.42
2023-01-29T00:12:40.611Z,1021.35
2023-01-29T00:13:40.619Z,1021.30
2023-01-29T00:14:40.588Z,1021.27
2023-01-29T00:15:40.584Z,1021.33
2023-01-29T00:16:40.599Z,1021.30
2023-01-29T00:17:40.568Z,1021.32
2023-01-29T00:18:40.536Z,1021.31
2023-01-29T00:19:40.538Z,1021.28
2023-01-29T00:20:40.549Z,1021.29
2023-01-29T00:21:40.550Z,1021.28
2023-01-29T00:22:40.596Z,1021.32
2023-01-29T00:23:48.017Z,1021.30
2023-01-29T00:24:43.180Z,1021.30
2023-01-29T00:25:41.239Z,1021.28
2023-01-29T00:26:41.205Z,1021.27
2023-01-29T00:27:40.469Z,1021.26
2023-01-29T00:28:40.473Z,1021.26
2023-01-29T00:29:40.453Z,1021.31
2023-01-29T00:30:40.414Z,1021.31
2023-01-29T00:31:40.570Z,1021.29
2023-01-29T00:32:40.402Z,1021.33
2023-01-29T00:33:40.417Z,1021.33
2023-01-29T00:34:40.405Z,1021.32
2023-01-29T00:35:40.390Z,1021.28
2023-01-29T00:36:40.368Z,1021.30
2023-01-29T00:37:40.362Z,1021.36
2023-01-29T00:38:40.338Z,1021.31
2023-01-29T00:39:47.768Z,1021.29
2023-01-29T00:40:41.312Z,1021.29
2023-01-29T00:41:40.334Z,1021.25
2023-01-29T00:42:40.301Z,1021.28
2023-01-29T00:43:40.308Z,1021.25
2023-01-29T00:44:40.266Z,1021.25
2023-01-29T00:45:40.268Z,1021.20
2023-01-29T00:46:40.280Z,1021.14
2023-01-29T00:47:40.274Z,1021.17
2023-01-29T00:48:40.226Z,1021.12
2023-01-29T00:49:40.254Z,1021.19
2023-01-29T00:50:40.214Z,1021.18
2023-01-29T00:51:40.212Z,1021.20
2023-01-29T00:52:40.189Z,1021.19
2023-01-29T00:53:40.414Z,1021.21
2023-01-29T00:54:40.188Z,1021.24
2023-01-29T00:55:40.163Z,1021.26
2023-01-29T00:56:40.160Z,1021.24
2023-01-29T00:57:40.158Z,1021.24
2023-01-29T00:58:40.141Z,1021.18
2023-01-29T00:59:40.147Z,1021.18
2023-01-29T01:00:40.195Z,1021.17
2023-01-29T01:01:40.143Z,1021.21
2023-01-29T01:02:40.091Z,1021.17
2023-01-29T01:03:40.079Z,1021.18
2023-01-29T01:04:40.062Z,1021.14
2023-01-29T01:05:40.077Z,1021.16
2023-01-29T01:06:40.054Z,1021.11
2023-01-29T01:07:40.081Z,1021.11
2023-01-29T01:08:40.028Z,1021.12
2023-01-29T01:09:40.045Z,1021.03
2023-01-29T01:10:40.002Z,1021.08
2023-01-29T01:11:40.007Z,1021.12
2023-01-29T01:12:39.985Z,1021.07
2023-01-29T01:13:39.971Z,1021.04
2023-01-29T01:14:39.964Z,1021.01
2023-01-29T01:15:39.991Z,1020.97
2023-01-29T01:16:39.985Z,1020.93
2023-01-29T01:17:39.958Z,1020.86
2023-01-29T01:18:39.936Z,1020.80
2023-01-29T01:19:39.942Z,1020.78
2023-01-29T01:20:40.003Z,1020.77
2023-01-29T01:21:39.931Z,1020.80
2023-01-29T01:22:39.876Z,1020.76
2023-01-29T01:23:39.891Z,1020.74
2023-01-29T01:24:39.864Z,1020.71
2023-01-29T01:25:39.878Z,1020.64
2023-01-29T01:26:39.838Z,1020.61
2023-01-29T01:27:39.844Z,1020.64
2023-01-29T01:28:39.847Z,1020.59
2023-01-29T01:29:39.832Z,1020.59
2023-01-29T01:30:39.812Z,1020.64
2023-01-29T01:31:39.809Z,1020.66
2023-01-29T01:32:39.766Z,1020.65
2023-01-29T01:33:39.784Z,1020.64
2023-01-29T01:34:39.779Z,1020.68
2023-01-29T01:35:39.802Z,1020.64
2023-01-29T01:36:39.744Z,1020.64
2023-01-29T01:37:39.749Z,1020.68
2023-01-29T01:38:39.719Z,1020.64
2023-01-29T01:39:39.718Z,1020.58
2023-01-29T01:40:39.707Z,1020.66
2023-01-29T01:41:39.732Z,1020.70
2023-01-29T01:42:39.661Z,1020.74
2023-01-29T01:43:39.692Z,1020.74
2023-01-29T01:44:39.647Z,1020.79
2023-01-29T01:45:39.694Z,1020.79
2023-01-29T01:46:39.649Z,1020.80
2023-01-29T01:47:39.649Z,1020.79
2023-01-29T01:48:39.604Z,1020.83
2023-01-29T01:49:39.620Z,1020.82
2023-01-29T01:50:39.590Z,1020.83
2023-01-29T01:51:39.597Z,1020.78
2023-01-29T01:52:39.588Z,1020.82
2023-01-29T01:53:39.564Z,1020.85
2023-01-29T01:54:39.669Z,1020.84
2023-01-29T01:55:39.580Z,1020.83
2023-01-29T01:56:39.531Z,1020.79
2023-01-29T01:57:39.546Z,1020.76
2023-01-29T01:58:39.517Z,1020.77
2023-01-29T01:59:39.501Z,1020.79
2023-01-29T02:00:39.546Z,1020.77
2023-01-29T02:01:39.504Z,1020.86
2023-01-29T02:02:39.463Z,1020.88
2023-01-29T02:03:39.484Z,1020.87
2023-01-29T02:04:39.467Z,1020.89
2023-01-29T02:05:39.438Z,1020.89
2023-01-29T02:06:39.419Z,1020.89
2023-01-29T02:07:39.419Z,1020.91
2023-01-29T02:08:39.397Z,1020.92
2023-01-29T02:09:39.414Z,1020.94
2023-01-29T02:10:39.383Z,1020.91
2023-01-29T02:11:39.392Z,1020.91
2023-01-29T02:12:39.379Z,1020.92
2023-01-29T02:13:39.357Z,1020.95
2023-01-29T02:14:39.338Z,1021.00
2023-01-29T02:15:39.335Z,1020.94
2023-01-29T02:16:39.335Z,1020.98
2023-01-29T02:17:39.361Z,1021.01
2023-01-29T02:18:39.313Z,1021.01
2023-01-29T02:19:39.306Z,1021.00
2023-01-29T02:20:39.289Z,1021.00
2023-01-29T02:21:39.286Z,1021.00
2023-01-29T02:22:39.247Z,1020.98
2023-01-29T02:23:39.266Z,1020.96
2023-01-29T02:24:39.287Z,1021.01
2023-01-29T02:25:39.287Z,1020.99
2023-01-29T02:26:39.235Z,1021.02
2023-01-29T02:27:39.218Z,1021.01
2023-01-29T02:28:39.209Z,1020.91
2023-01-29T02:29:39.190Z,1020.98
2023-01-29T02:30:39.301Z,1021.00
2023-01-29T02:31:39.283Z,1021.00
2023-01-29T02:32:39.143Z,1021.02
2023-01-29T02:33:39.162Z,1021.06
2023-01-29T02:34:39.135Z,1021.08
2023-01-29T02:35:39.132Z,1021.13
2023-01-29T02:36:39.118Z,1021.12
2023-01-29T02:37:39.116Z,1021.10
2023-01-29T02:38:39.768Z,1021.10
2023-01-29T02:39:39.105Z,1021.15
2023-01-29T02:40:39.081Z,1021.16
2023-01-29T02:41:39.079Z,1021.16
2023-01-29T02:42:39.060Z,1021.15
2023-01-29T02:43:39.057Z,1021.17
2023-01-29T02:44:39.069Z,1021.16
2023-01-29T02:45:39.097Z,1021.12
2023-01-29T02:46:39.025Z,1021.01
2023-01-29T02:47:39.015Z,1020.98
2023-01-29T02:48:39.000Z,1020.95
2023-01-29T02:49:38.995Z,1020.94
2023-01-29T02:50:38.989Z,1021.00
2023-01-29T02:51:38.956Z,1021.00
2023-01-29T02:52:38.939Z,1021.00
2023-01-29T02:53:38.976Z,1021.02
2023-01-29T02:54:38.915Z,1021.07
2023-01-29T02:55:38.910Z,1021.07
2023-01-29T02:56:39.097Z,1021.10
2023-01-29T02:57:38.910Z,1021.13
2023-01-29T02:58:38.897Z,1021.08
2023-01-29T02:59:38.886Z,1021.10
2023-01-29T03:00:38.875Z,1021.08
2023-01-29T03:01:38.896Z,1021.07
2023-01-29T03:02:38.887Z,1021.04
2023-01-29T03:03:38.836Z,1021.00
2023-01-29T03:04:38.821Z,1020.99
2023-01-29T03:05:38.830Z,1021.01
2023-01-29T03:06:38.832Z,1020.98
2023-01-29T03:07:38.803Z,1021.01
2023-01-29T03:08:38.775Z,1021.04
2023-01-29T03:09:38.787Z,1021.04
2023-01-29T03:10:38.776Z,1021.07
2023-01-29T03:11:38.783Z,1021.04
2023-01-29T03:12:38.755Z,1021.02
2023-01-29T03:13:38.757Z,1021.01
2023-01-29T03:14:38.723Z,1021.04
2023-01-29T03:15:38.720Z,1021.04
2023-01-29T03:16:38.749Z,1021.03
2023-01-29T03:17:38.682Z,1021.02
2023-01-29T03:18:38.670Z,1021.01
2023-01-29T03:19:38.680Z,1020.97
2023-01-29T03:20:38.657Z,1020.97
2023-01-29T03:21:38.670Z,1020.95
2023-01-29T03:22:38.663Z,1020.99
2023-01-29T03:23:38.645Z,1020.98
2023-01-29T03:24:38.614Z,1020.95
2023-01-29T03:25:38.614Z,1020.92
2023-01-29T03:26:38.595Z,1020.88
2023-01-29T03:27:38.746Z,1020.81
2023-01-29T03:28:38.575Z,1020.86
2023-01-29T03:29:38.581Z,1020.84
2023-01-29T03:30:38.545Z,1020.82
2023-01-29T03:31:38.613Z,1020.79
2023-01-29T03:32:38.540Z,1020.79
2023-01-29T03:33:38.544Z,1020.79
2023-01-29T03:34:38.517Z,1020.77
2023-01-29T03:35:38.498Z,1020.70
2023-01-29T03:36:38.501Z,1020.74
2023-01-29T03:37:38.486Z,1020.70
2023-01-29T03:38:38.465Z,1020.71
2023-01-29T03:39:47.064Z,1020.73
2023-01-29T03:40:38.453Z,1020.75
2023-01-29T03:41:41.206Z,1020.71
2023-01-29T03:42:38.461Z,1020.69
2023-01-29T03:43:38.413Z,1020.71
2023-01-29T03:44:38.438Z,1020.68
2023-01-29T03:45:38.441Z,1020.70
2023-01-29T03:46:38.402Z,1020.72
2023-01-29T03:47:38.387Z,1020.75
2023-01-29T03:48:38.393Z,1020.74
2023-01-29T03:49:38.355Z,1020.74
2023-01-29T03:50:38.387Z,1020.75
2023-01-29T03:51:38.330Z,1020.75
2023-01-29T03:52:38.339Z,1020.76
2023-01-29T03:53:38.325Z,1020.75
2023-01-29T03:54:38.323Z,1020.67
2023-01-29T03:55:38.305Z,1020.67
2023-01-29T03:56:38.311Z,1020.64
2023-01-29T03:57:38.260Z,1020.62
2023-01-29T03:58:38.471Z,1020.64
2023-01-29T03:59:38.251Z,1020.62
2023-01-29T04:00:38.268Z,1020.60
2023-01-29T04:01:38.257Z,1020.55
2023-01-29T04:02:38.247Z,1020.54
2023-01-29T04:03:38.207Z,1020.50
2023-01-29T04:04:38.235Z,1020.49
2023-01-29T04:05:38.201Z,1020.48
2023-01-29T04:06:38.216Z,1020.54
2023-01-29T04:07:38.167Z,1020.53
2023-01-29T04:08:38.186Z,1020.51
2023-01-29T04:09:38.153Z,1020.51
2023-01-29T04:10:38.156Z,1020.52
2023-01-29T04:11:38.133Z,1020.50
2023-01-29T04:12:38.110Z,1020.46
2023-01-29T04:13:38.179Z,1020.41
2023-01-29T04:14:38.108Z,1020.41
2023-01-29T04:15:38.080Z,1020.34
2023-01-29T04:16:38.163Z,1020.36
2023-01-29T04:17:38.064Z,1020.29
2023-01-29T04:18:38.078Z,1020.24
2023-01-29T04:19:38.040Z,1020.19
2023-01-29T04:20:38.042Z,1020.16
2023-01-29T04:21:38.023Z,1020.09
2023-01-29T04:22:38.038Z,1020.05
2023-01-29T04:23:38.000Z,1020.00
2023-01-29T04:24:38.004Z,1019.96
2023-01-29T04:25:37.983Z,1019.92
2023-01-29T04:26:37.989Z,1019.92
2023-01-29T04:27:37.961Z,1019.83
2023-01-29T04:28:37.965Z,1019.86
2023-01-29T04:29:37.955Z,1019.79
2023-01-29T04:30:37.995Z,1019.78
2023-01-29T04:31:38.039Z,1019.76
2023-01-29T04:32:37.920Z,1019.77
2023-01-29T04:33:37.892Z,1019.76
2023-01-29T04:34:37.889Z,1019.77
2023-01-29T04:35:37.886Z,1019.78
2023-01-29T04:36:37.879Z,1019.78
2023-01-29T04:37:37.867Z,1019.76
2023-01-29T04:38:37.873Z,1019.77
2023-01-29T04:39:37.830Z,1019.81
2023-01-29T04:40:37.826Z,1019.83
2023-01-29T04:41:37.836Z,1019.94
2023-01-29T04:42:37.812Z,1019.94
2023-01-29T04:43:37.784Z,1019.86
2023-01-29T04:44:37.784Z,1019.78
2023-01-29T04:45:37.790Z,1019.78
2023-01-29T04:46:37.784Z,1019.74
2023-01-29T04:47:37.783Z,1019.70
2023-01-29T04:48:37.754Z,1019.70
2023-01-29T04:49:37.747Z,1019.71
2023-01-29T04:50:37.730Z,1019.71
2023-01-29T04:51:37.722Z,1019.74
2023-01-29T04:52:37.726Z,1019.75
2023-01-29T04:53:37.672Z,1019.74
2023-01-29T04:54:37.690Z,1019.76
2023-01-29T04:55:37.666Z,1019.74
2023-01-29T04:56:37.676Z,1019.72
2023-01-29T04:57:37.638Z,1019.72
2023-01-29T04:58:37.652Z,1019.73
2023-01-29T04:59:37.823Z,1019.75
2023-01-29T05:00:37.630Z,1019.77
2023-01-29T05:01:37.698Z,1019.74
2023-01-29T05:02:37.658Z,1019.70
2023-01-29T05:03:37.603Z,1019.68
2023-01-29T05:04:37.593Z,1019.72
2023-01-29T05:05:37.561Z,1019.70
2023-01-29T05:06:37.580Z,1019.67
2023-01-29T05:07:37.539Z,1019.70
2023-01-29T05:08:37.662Z,1019.72
2023-01-29T05:09:37.538Z,1019.71
2023-01-29T05:10:37.530Z,1019.70
2023-01-29T05:11:37.507Z,1019.73
2023-01-29T05:12:37.516Z,1019.71
2023-01-29T05:13:39.470Z,1019.74
2023-01-29T05:14:37.477Z,1019.78
2023-01-29T05:15:37.471Z,1019.78
2023-01-29T05:16:37.464Z,1019.80
2023-01-29T05:17:37.442Z,1019.74
2023-01-29T05:18:37.455Z,1019.80
2023-01-29T05:19:37.422Z,1019.77
2023-01-29T05:20:37.429Z,1019.78
2023-01-29T05:21:39.151Z,1019.78
2023-01-29T05:22:37.390Z,1019.82
2023-01-29T05:23:37.475Z,1019.88
2023-01-29T05:24:37.387Z,1019.82
2023-01-29T05:25:37.360Z,1019.81
2023-01-29T05:26:37.336Z,1019.89
2023-01-29T05:27:37.351Z,1019.87
2023-01-29T05:28:37.335Z,1019.88
2023-01-29T05:29:37.333Z,1019.86
2023-01-29T05:30:37.360Z,1019.87
2023-01-29T05:31:37.369Z,1019.80
2023-01-29T05:32:37.292Z,1019.82
2023-01-29T05:33:37.313Z,1019.76
2023-01-29T05:34:37.291Z,1019.80
2023-01-29T05:35:37.265Z,1019.76
2023-01-29T05:36:37.273Z,1019.79
2023-01-29T05:37:37.241Z,1019.84
2023-01-29T05:38:37.247Z,1019.79
2023-01-29T05:39:37.218Z,1019.81
2023-01-29T05:40:37.250Z,1019.79
2023-01-29T05:41:37.187Z,1019.79
2023-01-29T05:42:37.188Z,1019.88
2023-01-29T05:43:37.171Z,1019.94
2023-01-29T05:44:37.165Z,1019.88
2023-01-29T05:45:37.140Z,1019.96
2023-01-29T05:46:37.176Z,1019.97
2023-01-29T05:47:37.118Z,1019.91
2023-01-29T05:48:37.125Z,1020.02
2023-01-29T05:49:38.731Z,1019.99
2023-01-29T05:50:37.137Z,1019.98
2023-01-29T05:51:37.079Z,1020.06
2023-01-29T05:52:37.083Z,1020.04
2023-01-29T05:53:37.097Z,1020.07
2023-01-29T05:54:37.070Z,1020.10
2023-01-29T05:55:37.079Z,1020.09
2023-01-29T05:56:37.065Z,1020.09
2023-01-29T05:57:37.048Z,1020.11
2023-01-29T05:58:37.039Z,1020.15
2023-01-29T05:59:37.016Z,1020.13
2023-01-29T06:00:37.030Z,1020.15
2023-01-29T06:01:37.440Z,1020.10
2023-01-29T06:02:37.105Z,1020.10
2023-01-29T06:03:36.965Z,1020.05
2023-01-29T06:04:36.959Z,1020.04
2023-01-29T06:05:36.966Z,1020.03
2023-01-29T06:06:36.949Z,1020.03
2023-01-29T06:07:36.940Z,1019.98
2023-01-29T06:08:36.947Z,1019.92
2023-01-29T06:09:36.908Z,1019.93
2023-01-29T06:10:36.896Z,1019.95
2023-01-29T06:11:36.908Z,1019.95
2023-01-29T06:12:36.885Z,1019.95
2023-01-29T06:13:36.862Z,1019.98
2023-01-29T06:14:36.857Z,1019.86
2023-01-29T06:15:36.818Z,1019.80
2023-01-29T06:16:37.101Z,1019.80
2023-01-29T06:17:36.828Z,1019.82
2023-01-29T06:18:36.810Z,1019.85
2023-01-29T06:19:36.797Z,1019.95
2023-01-29T06:20:36.806Z,1019.95
2023-01-29T06:21:36.795Z,1020.02
2023-01-29T06:22:36.788Z,1020.05
2023-01-29T06:23:36.774Z,1020.07
2023-01-29T06:24:36.761Z,1020.19
2023-01-29T06:25:36.742Z,1020.18
2023-01-29T06:26:36.761Z,1020.15
2023-01-29T06:27:36.721Z,1020.19
2023-01-29T06:28:36.720Z,1020.23
2023-01-29T06:29:36.706Z,1020.17
2023-01-29T06:30:36.706Z,1020.21
2023-01-29T06:31:39.326Z,1020.23
2023-01-29T06:32:36.790Z,1020.25
2023-01-29T06:33:36.678Z,1020.21
2023-01-29T06:34:36.649Z,1020.10
2023-01-29T06:35:36.653Z,1020.08
2023-01-29T06:36:36.633Z,1020.02
2023-01-29T06:37:36.615Z,1020.09
2023-01-29T06:38:36.612Z,1020.06
2023-01-29T06:40:36.515Z,1020.11
2023-01-29T06:41:34.826Z,1020.08
2023-01-29T06:42:34.779Z,1020.03
2023-01-29T06:43:34.852Z,1019.98
2023-01-29T06:44:34.819Z,1020.01
2023-01-29T06:45:34.825Z,1019.93
2023-01-29T06:46:34.735Z,1019.98
2023-01-29T06:47:34.771Z,1019.95
2023-01-29T06:48:34.790Z,1020.00
2023-01-29T06:49:34.765Z,1019.97
2023-01-29T06:50:36.175Z,1019.99
2023-01-29T06:51:34.852Z,1019.96
2023-01-29T06:52:34.864Z,1019.90
2023-01-29T06:53:34.726Z,1019.93
2023-01-29T06:54:34.641Z,1019.91
2023-01-29T06:55:34.656Z,1019.94
2023-01-29T06:56:34.649Z,1019.93
2023-01-29T06:57:34.645Z,1019.97
2023-01-29T06:58:34.605Z,1020.06
2023-01-29T06:59:34.611Z,1020.05
2023-01-29T07:00:34.666Z,1020.11
2023-01-29T07:01:36.589Z,1020.09
2023-01-29T07:02:34.907Z,1020.06
2023-01-29T07:03:34.568Z,1020.05
2023-01-29T07:04:34.549Z,1020.05
2023-01-29T07:05:34.536Z,1020.12
2023-01-29T07:06:34.533Z,1020.12
2023-01-29T07:07:34.517Z,1020.13
2023-01-29T07:08:34.546Z,1020.19
2023-01-29T07:09:34.507Z,1020.22
2023-01-29T07:10:34.516Z,1020.19
2023-01-29T07:11:34.481Z,1020.25
2023-01-29T07:12:34.464Z,1020.21
2023-01-29T07:13:34.485Z,1020.27
2023-01-29T07:14:34.441Z,1020.29
2023-01-29T07:15:37.008Z,1020.24
2023-01-29T07:16:34.487Z,1020.34
2023-01-29T07:17:34.410Z,1020.31
2023-01-29T07:18:34.420Z,1020.27
2023-01-29T07:19:34.396Z,1020.26
2023-01-29T07:20:34.381Z,1020.17
2023-01-29T07:21:34.380Z,1020.14
2023-01-29T07:22:34.378Z,1020.14
2023-01-29T07:23:34.380Z,1020.10
2023-01-29T07:24:34.373Z,1020.10
2023-01-29T07:25:34.343Z,1020.11
2023-01-29T07:26:34.330Z,1020.12
2023-01-29T07:27:34.326Z,1020.08
2023-01-29T07:28:34.308Z,1020.09
2023-01-29T07:29:34.403Z,1020.02
2023-01-29T07:30:34.279Z,1020.00
2023-01-29T07:31:34.492Z,1020.02
2023-01-29T07:32:34.240Z,1020.02
2023-01-29T07:33:34.293Z,1020.10
2023-01-29T07:34:34.245Z,1020.12
2023-01-29T07:35:34.249Z,1020.20
2023-01-29T07:36:34.210Z,1020.20
2023-01-29T07:37:34.198Z,1020.19
2023-01-29T07:38:34.176Z,1020.15
2023-01-29T07:39:34.188Z,1020.11
2023-01-29T07:40:34.165Z,1020.09
2023-01-29T07:41:34.238Z,1020.08
2023-01-29T07:42:34.137Z,1019.96
2023-01-29T07:43:34.154Z,1019.92
2023-01-29T07:44:34.126Z,1019.84
2023-01-29T07:45:34.148Z,1019.77
2023-01-29T07:46:34.091Z,1019.76
2023-01-29T07:47:34.118Z,1019.75
2023-01-29T07:48:34.091Z,1019.75
2023-01-29T07:49:34.097Z,1019.77
2023-01-29T07:50:34.066Z,1019.79
2023-01-29T07:51:34.057Z,1019.77
2023-01-29T07:52:34.048Z,1019.91
2023-01-29T07:53:34.041Z,1019.88
2023-01-29T07:54:34.020Z,1019.94
2023-01-29T07:55:34.021Z,1019.91
2023-01-29T07:56:34.027Z,1019.88
2023-01-29T07:57:34.001Z,1019.89
2023-01-29T07:58:36.434Z,1019.88
2023-01-29T07:59:33.977Z,1019.93
2023-01-29T08:00:33.944Z,1019.91
2023-01-29T08:01:33.959Z,1019.87
2023-01-29T08:02:33.965Z,1019.75
2023-01-29T08:03:33.938Z,1019.70
2023-01-29T08:04:34.166Z,1019.67
2023-01-29T08:05:34.031Z,1019.59
2023-01-29T08:06:33.910Z,1019.51
2023-01-29T08:07:33.886Z,1019.42
2023-01-29T08:08:33.895Z,1019.42
2023-01-29T08:09:34.018Z,1019.36
2023-01-29T08:10:33.862Z,1019.37
2023-01-29T08:11:33.872Z,1019.36
2023-01-29T08:12:34.331Z,1019.40
2023-01-29T08:13:33.862Z,1019.40
2023-01-29T08:14:33.947Z,1019.42
2023-01-29T08:15:33.827Z,1019.41
2023-01-29T08:16:34.235Z,1019.35
2023-01-29T08:17:33.829Z,1019.32
2023-01-29T08:18:33.800Z,1019.24
2023-01-29T08:19:33.934Z,1019.22
2023-01-29T08:20:34.092Z,1019.17
2023-01-29T08:21:33.894Z,1019.18
2023-01-29T08:22:33.792Z,1019.19
2023-01-29T08:23:33.756Z,1019.18
2023-01-29T08:24:47.643Z,1019.18
2023-01-29T08:25:34.783Z,1019.24
2023-01-29T08:26:33.969Z,1019.22
2023-01-29T08:27:33.706Z,1019.25
2023-01-29T08:28:33.663Z,1019.34
2023-01-29T08:29:33.656Z,1019.44
2023-01-29T08:30:34.366Z,1019.42
2023-01-29T08:31:33.757Z,1019.55
2023-01-29T08:32:33.613Z,1019.52
2023-01-29T08:33:38.936Z,1019.57
2023-01-29T08:34:34.633Z,1019.55
2023-01-29T08:35:33.898Z,1019.56
2023-01-29T08:36:33.843Z,1019.59
2023-01-29T08:37:33.572Z,1019.53
2023-01-29T08:38:33.560Z,1019.56
2023-01-29T08:39:34.618Z,1019.53
2023-01-29T08:40:34.050Z,1019.53
2023-01-29T08:41:33.557Z,1019.50
2023-01-29T08:42:33.512Z,1019.48
2023-01-29T08:43:33.530Z,1019.45
2023-01-29T08:44:33.497Z,1019.47
2023-01-29T08:45:33.502Z,1019.45
2023-01-29T08:46:33.526Z,1019.40
2023-01-29T08:47:33.770Z,1019.39
2023-01-29T08:48:33.445Z,1019.33
2023-01-29T08:49:33.460Z,1019.36
2023-01-29T08:50:33.434Z,1019.38
2023-01-29T08:51:33.456Z,1019.34
2023-01-29T08:52:33.419Z,1019.27
2023-01-29T08:53:33.898Z,1019.27
2023-01-29T08:54:33.374Z,1019.28
2023-01-29T08:55:33.392Z,1019.35
2023-01-29T08:56:33.431Z,1019.29
2023-01-29T08:57:33.366Z,1019.30
2023-01-29T08:58:33.343Z,1019.33
2023-01-29T08:59:33.355Z,1019.34
2023-01-29T09:00:33.343Z,1019.33
2023-01-29T09:01:33.388Z,1019.33
2023-01-29T09:02:33.377Z,1019.34
2023-01-29T09:03:33.306Z,1019.24
2023-01-29T09:04:33.287Z,1019.27
2023-01-29T09:05:33.601Z,1019.34
2023-01-29T09:06:33.302Z,1019.29
2023-01-29T09:07:33.545Z,1019.24
2023-01-29T09:08:33.247Z,1019.21
2023-01-29T09:09:33.221Z,1019.22
2023-01-29T09:10:33.399Z,1019.17
2023-01-29T09:11:33.560Z,1019.19
2023-01-29T09:12:33.188Z,1019.20
2023-01-29T09:13:33.376Z,1019.13
2023-01-29T09:14:33.172Z,1019.08
2023-01-29T09:15:33.194Z,1019.11
2023-01-29T09:16:33.330Z,1019.08
2023-01-29T09:17:33.156Z,1019.07
2023-01-29T09:18:33.134Z,1019.08
2023-01-29T09:19:33.135Z,1019.11
2023-01-29T09:20:33.128Z,1019.21
2023-01-29T09:21:33.139Z,1019.18
2023-01-29T09:22:33.532Z,1019.22
2023-01-29T09:23:33.111Z,1019.17
2023-01-29T09:24:33.065Z,1019.25
2023-01-29T09:25:33.172Z,1019.23
2023-01-29T09:26:33.188Z,1019.28
2023-01-29T09:27:33.056Z,1019.32
2023-01-29T09:28:33.046Z,1019.33
2023-01-29T09:29:35.615Z,1019.29
2023-01-29T09:30:33.065Z,1019.21
2023-01-29T09:31:33.096Z,1019.22
2023-01-29T09:33:34.118Z,1019.32
2023-01-29T09:34:33.038Z,1019.40
2023-01-29T09:35:32.958Z,1019.35
2023-01-29T09:36:33.100Z,1019.38
2023-01-29T09:37:32.938Z,1019.31
2023-01-29T09:38:33.040Z,1019.29
2023-01-29T09:39:32.916Z,1019.29
2023-01-29T09:40:33.045Z,1019.27
2023-01-29T09:41:32.907Z,1019.31
2023-01-29T09:42:34.376Z,1019.23
2023-01-29T09:43:32.886Z,1019.24
2023-01-29T09:44:32.895Z,1019.16
2023-01-29T09:45:32.865Z,1019.22
2023-01-29T09:46:32.913Z,1019.27
2023-01-29T09:47:32.907Z,1019.20
2023-01-29T09:48:32.919Z,1019.22
2023-01-29T09:49:32.818Z,1019.20
2023-01-29T09:50:33.129Z,1019.22
2023-01-29T09:51:32.811Z,1019.23
2023-01-29T09:52:32.929Z,1019.23
2023-01-29T09:53:33.176Z,1019.14
2023-01-29T09:54:32.747Z,1019.11
2023-01-29T09:55:32.949Z,1019.10
2023-01-29T09:56:32.752Z,1019.08
2023-01-29T09:57:32.740Z,1019.09
2023-01-29T09:58:32.708Z,1019.04
2023-01-29T09:59:32.775Z,1019.00
2023-01-29T10:00:32.688Z,1018.95
2023-01-29T10:01:32.736Z,1018.94
2023-01-29T10:02:32.673Z,1018.86
2023-01-29T10:03:32.726Z,1018.74
2023-01-29T10:04:33.082Z,1018.78
2023-01-29T10:05:32.651Z,1018.75
2023-01-29T10:06:32.778Z,1018.61
2023-01-29T10:07:32.791Z,1018.54
2023-01-29T10:08:32.616Z,1018.48
2023-01-29T10:09:33.047Z,1018.50
2023-01-29T10:10:33.029Z,1018.54
2023-01-29T10:11:32.578Z,1018.51
2023-01-29T10:12:32.627Z,1018.42
2023-01-29T10:13:32.568Z,1018.45
2023-01-29T10:14:32.717Z,1018.45
2023-01-29T10:15:32.739Z,1018.40
2023-01-29T10:16:32.833Z,1018.53
2023-01-29T10:17:32.678Z,1018.45
2023-01-29T10:18:32.576Z,1018.54
2023-01-29T10:19:32.808Z,1018.55
2023-01-29T10:20:32.647Z,1018.57
2023-01-29T10:21:32.752Z,1018.56
2023-01-29T10:22:32.476Z,1018.60
2023-01-29T10:23:34.486Z,1018.60
2023-01-29T10:24:32.737Z,1018.60
2023-01-29T10:25:32.889Z,1018.58
2023-01-29T10:26:32.628Z,1018.56
2023-01-29T10:27:32.416Z,1018.65
2023-01-29T10:28:32.641Z,1018.66
2023-01-29T10:29:32.493Z,1018.59
2023-01-29T10:30:32.704Z,1018.60
2023-01-29T10:31:32.534Z,1018.53
2023-01-29T10:32:32.944Z,1018.53
2023-01-29T10:33:48.741Z,1018.60
2023-01-29T10:34:33.496Z,1018.48
2023-01-29T10:35:32.427Z,1018.45
2023-01-29T10:36:32.540Z,1018.54
2023-01-29T10:37:32.859Z,1018.58
2023-01-29T10:38:32.380Z,1018.55
2023-01-29T10:39:33.141Z,1018.53
2023-01-29T10:40:32.267Z,1018.58
2023-01-29T10:41:32.493Z,1018.57
2023-01-29T10:42:32.260Z,1018.61
2023-01-29T10:43:32.250Z,1018.61
2023-01-29T10:44:32.246Z,1018.55
2023-01-29T10:45:32.303Z,1018.53
2023-01-29T10:46:32.262Z,1018.55
2023-01-29T10:47:32.361Z,1018.54
2023-01-29T10:48:32.265Z,1018.52
2023-01-29T10:49:32.248Z,1018.50
2023-01-29T10:50:32.277Z,1018.49
2023-01-29T10:51:32.313Z,1018.48
2023-01-29T10:52:32.210Z,1018.42
2023-01-29T10:53:32.185Z,1018.46
2023-01-29T10:54:32.357Z,1018.50
2023-01-29T10:55:32.301Z,1018.46
2023-01-29T10:56:32.126Z,1018.39
2023-01-29T10:57:32.287Z,1018.36
2023-01-29T10:58:32.105Z,1018.28
2023-01-29T10:59:32.301Z,1018.28
2023-01-29T11:00:32.212Z,1018.22
2023-01-29T11:01:32.389Z,1018.20
2023-01-29T11:02:32.110Z,1018.12
2023-01-29T11:03:32.091Z,1018.08
2023-01-29T11:04:32.012Z,1018.08
2023-01-29T11:05:32.022Z,1018.09
2023-01-29T11:06:32.170Z,1018.00
2023-01-29T11:07:32.377Z,1018.00
2023-01-29T11:08:31.997Z,1017.99
2023-01-29T11:10:31.968Z,1017.96
2023-01-29T11:11:32.294Z,1017.92
2023-01-29T11:12:31.933Z,1017.89
2023-01-29T11:13:31.986Z,1017.90
2023-01-29T11:14:31.913Z,1017.88
2023-01-29T11:15:31.892Z,1017.85
2023-01-29T11:16:31.895Z,1017.91
2023-01-29T11:17:32.209Z,1017.87
2023-01-29T11:18:31.929Z,1017.85
2023-01-29T11:19:31.917Z,1017.83
2023-01-29T11:20:31.879Z,1017.86
2023-01-29T11:21:31.846Z,1017.84
2023-01-29T11:22:32.053Z,1017.87
2023-01-29T11:23:31.984Z,1017.91
2023-01-29T11:24:31.903Z,1017.94
2023-01-29T11:25:31.888Z,1017.88
2023-01-29T11:26:31.815Z,1017.93
2023-01-29T11:27:31.782Z,1017.96
2023-01-29T11:28:31.789Z,1017.85
2023-01-29T11:29:32.131Z,1017.87
2023-01-29T11:30:32.005Z,1017.88
2023-01-29T11:31:31.886Z,1017.84
2023-01-29T11:32:31.943Z,1017.82
2023-01-29T11:33:31.959Z,1017.84
2023-01-29T11:34:31.739Z,1017.87
2023-01-29T11:35:31.761Z,1017.87
2023-01-29T11:36:31.698Z,1017.81
2023-01-29T11:37:31.670Z,1017.88
2023-01-29T11:38:32.066Z,1017.81
2023-01-29T11:39:32.215Z,1017.74
2023-01-29T11:40:31.701Z,1017.74
2023-01-29T11:41:31.707Z,1017.73
2023-01-29T11:42:31.648Z,1017.72
2023-01-29T11:43:31.905Z,1017.67
2023-01-29T11:44:31.604Z,1017.70
2023-01-29T11:45:31.821Z,1017.66
2023-01-29T11:46:31.602Z,1017.65
2023-01-29T11:47:31.582Z,1017.64
2023-01-29T11:48:31.892Z,1017.59
2023-01-29T11:49:31.562Z,1017.60
2023-01-29T11:50:31.851Z,1017.63
2023-01-29T11:51:31.514Z,1017.56
2023-01-29T11:52:31.570Z,1017.56
2023-01-29T11:53:31.671Z,1017.53
2023-01-29T11:54:31.507Z,1017.49
2023-01-29T11:55:48.187Z,1017.47
2023-01-29T11:56:32.514Z,1017.34
2023-01-29T11:57:31.521Z,1017.44
2023-01-29T11:58:31.455Z,1017.48
2023-01-29T11:59:31.637Z,1017.45
2023-01-29T12:00:31.577Z,1017.42
2023-01-29T12:01:31.803Z,1017.43
2023-01-29T12:02:31.543Z,1017.41
2023-01-29T12:03:31.404Z,1017.39
2023-01-29T12:04:31.449Z,1017.34
2023-01-29T12:05:31.363Z,1017.39
2023-01-29T12:06:31.390Z,1017.39
2023-01-29T12:07:31.574Z,1017.42
2023-01-29T12:08:31.686Z,1017.29